Time;durP1;ratioP1;P1;durP2;ratioP2;P2;SDS_P1;SDS_P2;PMS_P1;PMS_P2;Temp;Humidity;BMP_temperature;BMP_pressure;BME280_temperature;BME280_humidity;BME280_pressure;Samples;Min_cycle;Max_cycle;Signal;HPM_P1;HPM_P2
2023/06/15 00:00:13;;;;;;;5.57;2.57;;;;;;;15.00;100.00;100953.00;682134;28;1052;-54
2023/06/15 00:00:35;;;;;;;4.40;2.60;;;;;;;15.01;100.00;100960.88;681091;28;920;-54
2023/06/15 00:00:56;;;;;;;4.10;2.65;;;;;;;15.00;100.00;100953.88;680022;28;4537;-54
2023/06/15 00:01:17;;;;;;;3.90;2.78;;;;;;;15.01;100.00;100959.97;682168;29;1090;-51
2023/06/15 00:01:37;;;;;;;5.07;2.77;;;;;;;14.99;100.00;100952.13;680247;28;1181;-53
2023/06/15 00:01:58;;;;;;;4.03;2.73;;;;;;;14.98;100.00;100959.16;680901;28;1431;-53
2023/06/15 00:02:18;;;;;;;5.15;2.80;;;;;;;14.99;100.00;100957.38;682175;29;1192;-54
2023/06/15 00:02:40;;;;;;;4.70;2.70;;;;;;;14.99;100.00;100952.13;681226;29;973;-50
2023/06/15 00:03:01;;;;;;;4.10;2.50;;;;;;;15.00;100.00;100959.13;680377;28;1645;-53
2023/06/15 00:03:21;;;;;;;3.87;2.60;;;;;;;15.00;100.00;100953.00;681016;29;828;-53
2023/06/15 00:03:42;;;;;;;4.38;2.70;;;;;;;14.99;100.00;100952.13;681114;28;5214;-50
2023/06/15 00:04:03;;;;;;;6.35;2.88;;;;;;;15.00;100.00;100948.59;679813;28;1460;-52
2023/06/15 00:04:23;;;;;;;4.37;2.70;;;;;;;15.00;100.00;100963.53;681267;29;964;-53
2023/06/15 00:04:44;;;;;;;4.23;2.70;;;;;;;14.96;100.00;100954.81;679776;29;809;-51
2023/06/15 00:05:05;;;;;;;3.92;2.92;;;;;;;14.96;100.00;100953.03;680534;29;905;-53
2023/06/15 00:05:25;;;;;;;5.03;2.83;;;;;;;14.93;100.00;100957.50;682045;28;1137;-53
2023/06/15 00:05:46;;;;;;;5.23;2.87;;;;;;;14.93;100.00;100957.50;680551;28;1099;-53
2023/06/15 00:06:07;;;;;;;4.07;2.85;;;;;;;14.96;100.00;100949.56;681520;29;999;-53
2023/06/15 00:06:28;;;;;;;3.95;2.88;;;;;;;14.96;100.00;100952.19;681976;29;826;-52
2023/06/15 00:06:48;;;;;;;3.50;2.60;;;;;;;14.95;100.00;100959.22;680330;28;4377;-54
2023/06/15 00:07:08;;;;;;;3.90;2.60;;;;;;;14.95;100.00;100951.31;682184;28;849;-51
2023/06/15 00:07:29;;;;;;;3.90;2.60;;;;;;;14.95;100.00;100951.31;682440;28;1248;-52
2023/06/15 00:07:49;;;;;;;3.37;2.50;;;;;;;14.96;100.00;100953.03;679631;28;1608;-54
2023/06/15 00:08:10;;;;;;;4.10;2.70;;;;;;;14.96;100.00;100952.19;677813;29;866;-54
2023/06/15 00:08:30;;;;;;;5.07;2.60;;;;;;;14.93;100.00;100955.72;678556;29;798;-54
2023/06/15 00:08:50;;;;;;;4.90;2.60;;;;;;;14.90;100.00;100953.16;678568;29;1023;-55
2023/06/15 00:09:12;;;;;;;4.37;2.60;;;;;;;14.91;100.00;100949.66;679356;29;1144;-53
2023/06/15 00:09:33;;;;;;;4.13;2.75;;;;;;;14.91;100.00;100954.03;679895;29;901;-52
2023/06/15 00:09:54;;;;;;;4.70;2.70;;;;;;;14.89;100.00;100948.78;679757;28;4535;-53
2023/06/15 00:10:18;;;;;;;4.30;2.90;;;;;;;14.86;100.00;100956.75;681603;29;986;-54
2023/06/15 00:10:38;;;;;;;5.88;3.10;;;;;;;14.86;100.00;100961.16;681154;29;953;-53
2023/06/15 00:10:58;;;;;;;4.17;2.67;;;;;;;14.86;100.00;100954.13;680053;28;1610;-55
2023/06/15 00:11:19;;;;;;;4.20;2.80;;;;;;;14.88;100.00;100954.09;680866;29;814;-54
2023/06/15 00:11:40;;;;;;;3.90;2.70;;;;;;;14.86;100.00;100951.47;682309;29;1117;-54
2023/06/15 00:12:01;;;;;;;3.53;2.63;;;;;;;14.87;100.00;100952.34;681339;28;1503;-54
2023/06/15 00:12:23;;;;;;;3.60;2.60;;;;;;;14.87;100.00;100953.22;681666;28;858;-54
2023/06/15 00:12:44;;;;;;;4.13;2.90;;;;;;;14.86;100.00;100951.47;681069;28;4558;-52
2023/06/15 00:13:05;;;;;;;4.55;2.72;;;;;;;14.88;100.00;100954.09;681366;29;856;-52
2023/06/15 00:13:25;;;;;;;4.20;2.70;;;;;;;14.88;100.00;100952.31;681507;28;1125;-52
2023/06/15 00:13:45;;;;;;;5.20;2.70;;;;;;;14.88;100.00;100954.94;680426;28;1562;-53
2023/06/15 00:14:07;;;;;;;4.82;2.65;;;;;;;14.88;100.00;100957.56;681739;29;886;-53
2023/06/15 00:14:28;;;;;;;4.05;2.50;;;;;;;14.87;100.00;100955.84;681159;29;909;-53
2023/06/15 00:14:48;;;;;;;4.43;2.65;;;;;;;14.87;100.00;100950.59;679452;28;1927;-49
2023/06/15 00:15:09;;;;;;;4.20;2.77;;;;;;;14.85;100.00;100955.00;681574;28;946;-54
2023/06/15 00:15:30;;;;;;;4.07;2.50;;;;;;;14.85;100.00;100954.16;683167;28;1314;-53
2023/06/15 00:15:51;;;;;;;4.18;2.60;;;;;;;14.84;100.00;100955.03;682284;28;4360;-52
2023/06/15 00:16:12;;;;;;;4.00;2.80;;;;;;;14.85;100.00;100955.00;683230;28;3494;-50
2023/06/15 00:16:33;;;;;;;3.60;2.60;;;;;;;14.84;100.00;100955.03;684230;28;1089;-51
2023/06/15 00:16:54;;;;;;;4.57;2.70;;;;;;;14.81;100.00;100953.31;683401;28;1643;-52
2023/06/15 00:17:15;;;;;;;3.88;2.55;;;;;;;14.82;100.00;100947.16;683369;28;853;-54
2023/06/15 00:17:37;;;;;;;4.75;2.90;;;;;;;14.84;100.00;100948.00;680718;29;774;-50
2023/06/15 00:17:58;;;;;;;4.57;2.72;;;;;;;14.86;100.00;100955.91;680711;28;1561;-53
2023/06/15 00:18:19;;;;;;;3.83;2.60;;;;;;;14.86;100.00;100956.75;681431;28;766;-53
2023/06/15 00:18:40;;;;;;;5.07;2.70;;;;;;;14.86;100.00;100946.22;681737;29;1110;-54
2023/06/15 00:19:01;;;;;;;5.00;2.55;;;;;;;14.86;100.00;100956.75;680668;28;4935;-53
2023/06/15 00:19:22;;;;;;;4.47;2.60;;;;;;;14.87;100.00;100953.22;682027;28;893;-54
2023/06/15 00:19:44;;;;;;;4.38;2.80;;;;;;;14.83;100.00;100951.53;681737;28;980;-51
2023/06/15 00:20:08;;;;;;;4.35;2.80;;;;;;;14.79;100.00;100955.13;679440;29;1943;-53
2023/06/15 00:20:28;;;;;;;4.47;2.70;;;;;;;14.77;100.00;100956.91;679542;29;1011;-53
2023/06/15 00:20:48;;;;;;;4.72;2.80;;;;;;;14.79;100.00;100955.13;676087;29;1484;-53
2023/06/15 00:21:09;;;;;;;4.07;2.70;;;;;;;14.80;100.00;100956.84;677451;29;940;-52
2023/06/15 00:21:33;;;;;;;4.93;3.10;;;;;;;14.81;100.00;100956.84;674905;29;870;-55
2023/06/15 00:21:56;;;;;;;4.38;2.78;;;;;;;14.81;100.00;100962.09;676461;29;4359;-52
2023/06/15 00:22:17;;;;;;;3.85;2.70;;;;;;;14.78;100.00;100962.13;678733;29;1788;-53
2023/06/15 00:22:40;;;;;;;5.03;2.80;;;;;;;14.78;100.00;100954.25;679611;29;936;-50
2023/06/15 00:23:00;;;;;;;4.45;2.80;;;;;;;14.80;100.00;100956.84;680226;28;1482;-52
2023/06/15 00:23:26;;;;;;;4.73;2.80;;;;;;;14.80;100.00;100963.00;681951;29;1126;-52
2023/06/15 00:23:46;;;;;;;5.53;2.80;;;;;;;14.81;100.00;100961.22;679146;28;2240;-51
2023/06/15 00:24:09;;;;;;;3.80;2.50;;;;;;;14.79;100.00;100957.75;681558;29;869;-52
2023/06/15 00:24:29;;;;;;;3.80;2.60;;;;;;;14.79;100.00;100960.38;681296;29;969;-50
2023/06/15 00:24:50;;;;;;;4.70;2.70;;;;;;;14.78;100.00;100958.66;678873;28;4656;-55
2023/06/15 00:25:10;;;;;;;4.35;2.65;;;;;;;14.77;100.00;100959.53;681961;29;1241;-51
2023/06/15 00:25:33;;;;;;;3.93;2.80;;;;;;;14.76;100.00;100960.41;680503;29;1028;-54
2023/06/15 00:25:53;;;;;;;3.60;2.63;;;;;;;14.77;100.00;100955.16;678042;29;1563;-53
2023/06/15 00:26:14;;;;;;;3.93;2.67;;;;;;;14.78;100.00;100962.13;679722;29;846;-51
2023/06/15 00:26:36;;;;;;;5.30;2.80;;;;;;;14.79;100.00;100955.97;679438;29;1350;-51
2023/06/15 00:26:56;;;;;;;5.25;2.72;;;;;;;14.78;100.00;100958.66;677445;29;1508;-51
2023/06/15 00:27:17;;;;;;;4.97;2.95;;;;;;;14.79;100.00;100960.38;679898;29;1021;-52
2023/06/15 00:27:39;;;;;;;4.45;2.80;;;;;;;14.78;100.00;100967.41;676789;29;845;-52
2023/06/15 00:27:59;;;;;;;4.70;2.70;;;;;;;14.76;100.00;100970.94;674445;29;4485;-54
2023/06/15 00:28:20;;;;;;;5.35;2.80;;;;;;;14.75;100.00;100963.97;676803;29;1406;-55
2023/06/15 00:28:42;;;;;;;4.22;2.80;;;;;;;14.74;100.00;100963.09;677687;29;1402;-55
2023/06/15 00:29:03;;;;;;;4.72;2.90;;;;;;;14.75;100.00;100963.97;678300;29;1562;-52
2023/06/15 00:29:24;;;;;;;4.27;2.80;;;;;;;14.73;100.00;100958.72;680822;29;834;-55
2023/06/15 00:29:44;;;;;;;4.27;2.67;;;;;;;14.73;100.00;100963.09;682192;29;964;-50
2023/06/15 00:30:08;;;;;;;3.95;2.65;;;;;;;14.73;100.00;100971.91;681951;29;1077;-54
2023/06/15 00:30:30;;;;;;;5.00;2.90;;;;;;;14.70;100.00;100960.53;678681;29;1534;-51
2023/06/15 00:30:51;;;;;;;4.60;2.60;;;;;;;14.68;100.00;100959.72;678010;28;4383;-53
2023/06/15 00:31:11;;;;;;;4.45;2.60;;;;;;;14.69;100.00;100967.56;679375;29;807;-53
2023/06/15 00:31:33;;;;;;;3.73;2.63;;;;;;;14.69;100.00;100959.69;677315;29;1454;-52
2023/06/15 00:31:53;;;;;;;4.45;2.70;;;;;;;14.68;100.00;100959.72;676640;29;1514;-52
2023/06/15 00:32:14;;;;;;;5.00;2.83;;;;;;;14.68;100.00;100967.59;682320;28;973;-50
2023/06/15 00:32:34;;;;;;;4.38;2.47;;;;;;;14.66;100.00;100964.97;680856;29;1265;-54
2023/06/15 00:32:56;;;;;;;4.30;2.80;;;;;;;14.65;100.00;100963.25;679322;28;2161;-53
2023/06/15 00:33:17;;;;;;;4.10;2.75;;;;;;;14.62;100.00;100964.19;679739;29;1502;-52
2023/06/15 00:33:37;;;;;;;3.70;2.55;;;;;;;14.59;100.00;100963.31;678246;29;985;-53
2023/06/15 00:33:58;;;;;;;3.80;2.60;;;;;;;14.56;100.00;100961.59;675880;29;4322;-52
2023/06/15 00:34:18;;;;;;;4.65;2.83;;;;;;;14.56;100.00;100964.22;677670;29;919;-52
2023/06/15 00:34:38;;;;;;;4.30;2.97;;;;;;;14.56;100.00;100968.63;675996;29;1918;-54
2023/06/15 00:34:59;;;;;;;5.20;2.87;;;;;;;14.56;100.00;100963.38;675075;29;1532;-53
2023/06/15 00:35:19;;;;;;;5.45;2.90;;;;;;;14.55;100.00;100962.50;672256;29;930;-53
2023/06/15 00:35:39;;;;;;;4.13;2.60;;;;;;;14.56;100.00;100963.38;674080;29;1055;-54
2023/06/15 00:36:00;;;;;;;4.30;2.72;;;;;;;14.55;100.00;100965.16;675436;29;1464;-51
2023/06/15 00:36:20;;;;;;;3.90;2.70;;;;;;;14.56;100.00;100958.97;676970;29;1095;-52
2023/06/15 00:36:41;;;;;;;4.30;2.70;;;;;;;14.56;100.00;100964.22;676822;29;4554;-52
2023/06/15 00:37:01;;;;;;;5.13;2.90;;;;;;;14.57;100.00;100963.34;678540;29;1530;-53
2023/06/15 00:37:21;;;;;;;5.83;3.00;;;;;;;14.58;100.00;100965.09;681513;29;1082;-54
2023/06/15 00:37:42;;;;;;;4.38;2.90;;;;;;;14.56;100.00;100968.63;678453;29;1633;-54
2023/06/15 00:38:02;;;;;;;4.17;2.67;;;;;;;14.54;100.00;100966.03;677770;29;1484;-53
2023/06/15 00:38:23;;;;;;;3.83;2.60;;;;;;;14.56;100.00;100968.63;680651;29;1162;-53
2023/06/15 00:38:44;;;;;;;4.30;2.70;;;;;;;14.56;100.00;100963.38;682363;29;996;-53
2023/06/15 00:39:04;;;;;;;4.72;2.65;;;;;;;14.51;100.00;100963.47;678022;29;1589;-55
2023/06/15 00:39:24;;;;;;;3.90;2.60;;;;;;;14.51;100.00;100959.94;676797;29;1301;-52
2023/06/15 00:39:45;;;;;;;4.38;2.90;;;;;;;14.52;100.00;100962.53;674554;29;4483;-51
2023/06/15 00:40:06;;;;;;;4.20;2.90;;;;;;;14.53;100.00;100963.44;675143;29;865;-53
2023/06/15 00:40:26;;;;;;;3.97;2.47;;;;;;;14.51;100.00;100963.47;675707;29;1393;-52
2023/06/15 00:40:48;;;;;;;4.60;2.70;;;;;;;14.54;100.00;100973.03;674325;29;1479;-53
2023/06/15 00:41:10;;;;;;;3.92;2.53;;;;;;;14.55;100.00;100965.16;676691;29;1417;-54
2023/06/15 00:41:40;;;;;;;4.00;2.85;;;;;;;14.54;100.00;100962.50;675699;29;2011;-54
2023/06/15 00:42:00;;;;;;;4.25;2.92;;;;;;;14.53;100.00;100961.66;678306;29;1491;-55
2023/06/15 00:42:21;;;;;;;4.47;3.00;;;;;;;14.55;100.00;100965.16;680798;29;957;-55
2023/06/15 00:42:45;;;;;;;4.15;2.90;;;;;;;14.55;100.00;100965.16;680054;28;4450;-54
2023/06/15 00:43:05;;;;;;;4.00;2.80;;;;;;;14.57;100.00;100965.97;677134;29;1945;-50
2023/06/15 00:43:26;;;;;;;4.50;2.88;;;;;;;14.56;100.00;100966.00;678995;29;905;-53
2023/06/15 00:43:47;;;;;;;4.05;2.72;;;;;;;14.48;100.00;100967.00;675745;29;1604;-53
2023/06/15 00:44:07;;;;;;;5.30;2.70;;;;;;;14.50;100.00;100971.38;673257;29;1239;-55
2023/06/15 00:44:28;;;;;;;5.15;2.70;;;;;;;14.50;100.00;100966.97;673569;29;957;-54
2023/06/15 00:44:48;;;;;;;3.90;2.50;;;;;;;14.47;100.00;100964.41;673321;29;1500;-51
2023/06/15 00:45:09;;;;;;;6.80;2.90;;;;;;;14.44;100.00;100962.69;679967;29;878;-49
2023/06/15 00:45:29;;;;;;;6.28;2.90;;;;;;;14.48;100.00;100963.47;679750;29;1024;-53
2023/06/15 00:45:50;;;;;;;3.83;2.77;;;;;;;14.47;100.00;100961.78;675837;29;4485;-53
2023/06/15 00:46:12;;;;;;;4.07;2.80;;;;;;;14.45;100.00;100964.44;681012;28;905;-51
2023/06/15 00:46:33;;;;;;;5.13;2.60;;;;;;;14.46;100.00;100965.28;680220;29;861;-53
2023/06/15 00:46:54;;;;;;;5.43;2.55;;;;;;;14.46;100.00;100966.13;680932;28;1466;-53
2023/06/15 00:47:19;;;;;;;4.75;2.53;;;;;;;14.46;100.00;100970.53;682053;29;1402;-53
2023/06/15 00:47:41;;;;;;;4.75;2.83;;;;;;;14.45;100.00;100966.16;681260;29;1016;-53
2023/06/15 00:48:02;;;;;;;4.75;2.67;;;;;;;14.45;100.00;100966.16;676335;29;1462;-51
2023/06/15 00:48:23;;;;;;;3.72;2.63;;;;;;;14.45;100.00;100967.06;679339;29;834;-53
2023/06/15 00:48:43;;;;;;;4.57;2.97;;;;;;;14.45;100.00;100967.06;678510;28;4398;-54
2023/06/15 00:49:04;;;;;;;4.00;2.67;;;;;;;14.45;100.00;100966.16;681003;28;1541;-53
2023/06/15 00:49:25;;;;;;;4.22;2.75;;;;;;;14.46;100.00;100968.78;682431;29;1217;-52
2023/06/15 00:49:47;;;;;;;3.80;2.65;;;;;;;14.45;100.00;100972.31;679518;28;1550;-50
2023/06/15 00:50:10;;;;;;;3.90;2.60;;;;;;;14.45;100.00;100964.44;681680;29;863;-51
2023/06/15 00:50:30;;;;;;;4.30;2.75;;;;;;;14.47;100.00;100967.03;679889;29;1080;-52
2023/06/15 00:50:51;;;;;;;4.43;3.00;;;;;;;14.47;100.00;100964.41;680793;28;1467;-54
2023/06/15 00:51:12;;;;;;;4.37;2.80;;;;;;;14.48;100.00;100969.63;681143;29;1298;-53
2023/06/15 00:51:34;;;;;;;3.92;2.63;;;;;;;14.49;100.00;100962.59;680346;28;791;-55
2023/06/15 00:51:55;;;;;;;4.07;2.80;;;;;;;14.48;100.00;100971.38;679391;28;4530;-53
2023/06/15 00:52:17;;;;;;;4.93;2.92;;;;;;;14.46;100.00;100970.53;680892;29;1071;-53
2023/06/15 00:52:38;;;;;;;4.85;2.97;;;;;;;14.44;100.00;100969.69;678162;29;1708;-54
2023/06/15 00:53:05;;;;;;;5.27;2.80;;;;;;;14.41;100.00;100972.38;675310;29;1546;-53
2023/06/15 00:53:25;;;;;;;4.97;2.88;;;;;;;14.34;100.00;100968.97;674911;29;981;-52
2023/06/15 00:53:47;;;;;;;5.50;2.90;;;;;;;14.35;100.00;100972.47;673734;29;1574;-53
2023/06/15 00:54:08;;;;;;;5.25;2.95;;;;;;;14.37;100.00;100974.19;675985;29;1355;-53
2023/06/15 00:54:29;;;;;;;4.35;2.80;;;;;;;14.39;100.00;100966.28;676648;29;1056;-52
2023/06/15 00:54:50;;;;;;;6.18;2.90;;;;;;;14.40;100.00;100970.63;674975;29;4408;-53
2023/06/15 00:55:13;;;;;;;4.60;2.72;;;;;;;14.41;100.00;100967.09;677225;29;929;-53
2023/06/15 00:55:34;;;;;;;3.70;2.70;;;;;;;14.41;100.00;100972.38;677094;29;933;-54
2023/06/15 00:55:55;;;;;;;3.97;2.80;;;;;;;14.42;100.00;100971.50;676734;29;1457;-51
2023/06/15 00:56:17;;;;;;;5.00;3.00;;;;;;;14.43;100.00;100967.97;680363;29;1026;-53
2023/06/15 00:56:38;;;;;;;5.47;2.95;;;;;;;14.43;100.00;100976.72;679487;29;2476;-52
2023/06/15 00:56:58;;;;;;;4.70;2.80;;;;;;;14.42;100.00;100967.09;678312;29;913;-53
2023/06/15 00:57:18;;;;;;;5.00;2.73;;;;;;;14.40;100.00;100970.63;679755;29;753;-52
2023/06/15 00:57:44;;;;;;;6.07;3.20;;;;;;;14.35;100.00;100975.13;679807;29;1195;-54
2023/06/15 00:58:05;;;;;;;4.80;2.80;;;;;;;14.31;100.00;100964.63;676106;29;4849;-52
2023/06/15 00:58:26;;;;;;;4.88;2.65;;;;;;;14.31;100.00;100969.88;677897;29;1354;-53
2023/06/15 00:58:48;;;;;;;4.03;2.70;;;;;;;14.33;100.00;100967.25;676794;29;1507;-50
2023/06/15 00:59:08;;;;;;;4.20;2.83;;;;;;;14.33;100.00;100964.63;676627;29;1107;-54
2023/06/15 00:59:29;;;;;;;3.77;2.80;;;;;;;14.34;100.00;100973.38;673603;29;1128;-54
2023/06/15 00:59:49;;;;;;;4.30;2.70;;;;;;;14.34;100.00;100974.22;671799;29;1682;-54
2023/06/15 01:00:12;;;;;;;4.03;2.77;;;;;;;14.34;100.00;100968.97;675203;29;890;-51
2023/06/15 01:00:35;;;;;;;4.50;2.83;;;;;;;14.33;100.00;100971.63;675827;29;996;-53
2023/06/15 01:00:56;;;;;;;4.32;2.80;;;;;;;14.31;100.00;100969.88;677849;29;4523;-53
2023/06/15 01:01:17;;;;;;;4.00;2.87;;;;;;;14.34;100.00;100970.75;681601;29;1158;-51
2023/06/15 01:01:37;;;;;;;4.10;2.60;;;;;;;14.33;100.00;100969.88;681417;29;889;-54
2023/06/15 01:01:58;;;;;;;4.50;2.80;;;;;;;14.34;100.00;100968.09;679142;28;1537;-49
2023/06/15 01:02:24;;;;;;;4.55;2.95;;;;;;;14.33;100.00;100974.25;682277;28;1203;-52
2023/06/15 01:02:48;;;;;;;5.93;2.90;;;;;;;14.34;100.00;100973.38;680843;28;1112;-54
2023/06/15 01:03:12;;;;;;;4.78;2.92;;;;;;;14.34;100.00;100973.38;680625;29;1063;-52
2023/06/15 01:03:35;;;;;;;5.47;3.10;;;;;;;14.36;100.00;100975.09;680289;29;1004;-52
2023/06/15 01:03:57;;;;;;;5.15;2.90;;;;;;;14.36;100.00;100976.81;679396;28;4446;-54
2023/06/15 01:04:17;;;;;;;4.07;2.80;;;;;;;14.33;100.00;100977.78;681595;28;1183;-51
2023/06/15 01:04:41;;;;;;;4.35;2.90;;;;;;;14.34;100.00;100968.97;681367;28;1095;-54
2023/06/15 01:05:01;;;;;;;4.00;2.70;;;;;;;14.34;100.00;100979.47;680728;28;1801;-53
2023/06/15 01:05:23;;;;;;;5.35;2.80;;;;;;;14.34;100.00;100970.75;680554;29;818;-54
2023/06/15 01:05:44;;;;;;;5.68;2.95;;;;;;;14.26;100.00;100971.72;679394;29;1464;-53
2023/06/15 01:06:13;;;;;;;5.03;3.10;;;;;;;14.26;100.00;100969.09;675403;29;1480;-53
2023/06/15 01:06:41;;;;;;;5.60;3.55;;;;;;;14.27;100.00;100968.22;672372;29;918;-52
2023/06/15 01:07:04;;;;;;;4.35;2.80;;;;;;;14.24;100.00;100975.28;672087;29;5231;-54
2023/06/15 01:07:27;;;;;;;4.40;2.92;;;;;;;14.25;100.00;100977.88;673714;29;1080;-53
2023/06/15 01:07:51;;;;;;;4.15;2.70;;;;;;;14.26;100.00;100974.34;676727;29;1573;-51
2023/06/15 01:08:15;;;;;;;4.53;2.75;;;;;;;14.27;100.00;100969.97;678579;29;1239;-54
2023/06/15 01:08:36;;;;;;;4.43;2.72;;;;;;;14.29;100.00;100974.31;681148;29;1028;-54
2023/06/15 01:08:58;;;;;;;3.92;2.80;;;;;;;14.29;100.00;100976.94;679308;28;1580;-51
2023/06/15 01:09:21;;;;;;;4.13;2.80;;;;;;;14.30;100.00;100967.28;680708;29;969;-52
2023/06/15 01:09:43;;;;;;;4.32;2.80;;;;;;;14.29;100.00;100970.81;681250;28;4619;-52
2023/06/15 01:10:04;;;;;;;3.95;2.70;;;;;;;14.30;100.00;100972.53;679941;28;1660;-53
2023/06/15 01:10:25;;;;;;;4.35;2.80;;;;;;;14.30;100.00;100977.78;680587;29;1347;-53
2023/06/15 01:10:52;;;;;;;4.20;2.80;;;;;;;14.27;100.00;100973.47;678222;29;1508;-54
2023/06/15 01:11:16;;;;;;;4.95;2.78;;;;;;;14.23;100.00;100974.41;679565;29;897;-52
2023/06/15 01:11:38;;;;;;;4.50;2.70;;;;;;;14.25;100.00;100969.13;674973;29;1054;-51
2023/06/15 01:12:01;;;;;;;4.28;2.83;;;;;;;14.27;100.00;100976.09;676443;29;1599;-53
2023/06/15 01:12:24;;;;;;;4.55;3.00;;;;;;;14.28;100.00;100975.19;678204;29;1229;-53
2023/06/15 01:12:50;;;;;;;4.00;2.78;;;;;;;14.27;100.00;100973.47;680508;28;4586;-54
2023/06/15 01:13:12;;;;;;;3.83;2.50;;;;;;;14.27;100.00;100973.47;677196;29;2112;-51
2023/06/15 01:13:34;;;;;;;4.15;2.72;;;;;;;14.26;100.00;100971.72;678671;29;901;-51
2023/06/15 01:13:56;;;;;;;4.57;3.00;;;;;;;14.25;100.00;100967.34;678491;29;1447;-54
2023/06/15 01:14:17;;;;;;;4.60;2.92;;;;;;;14.26;100.00;100971.72;679375;29;979;-53
2023/06/15 01:14:38;;;;;;;4.15;2.80;;;;;;;14.26;100.00;100974.34;678404;29;912;-52
2023/06/15 01:14:58;;;;;;;4.18;2.95;;;;;;;14.24;100.00;100967.38;678257;29;1973;-54
2023/06/15 01:15:19;;;;;;;4.10;3.00;;;;;;;14.22;100.00;100970.03;681208;29;1005;-53
2023/06/15 01:15:43;;;;;;;4.30;3.00;;;;;;;14.22;100.00;100974.41;679921;29;936;-54
2023/06/15 01:16:07;;;;;;;4.03;3.00;;;;;;;14.22;100.00;100967.41;682439;28;5013;-54
2023/06/15 01:16:35;;;;;;;6.10;3.15;;;;;;;14.21;100.00;100973.56;682161;28;1155;-53
2023/06/15 01:17:02;;;;;;;6.60;2.90;;;;;;;14.20;100.00;100969.16;680909;28;1584;-54
2023/06/15 01:17:23;;;;;;;4.97;2.95;;;;;;;14.20;100.00;100977.06;682294;29;905;-54
2023/06/15 01:17:46;;;;;;;4.75;3.00;;;;;;;14.18;100.00;100970.97;680469;29;901;-54
2023/06/15 01:18:07;;;;;;;4.22;2.95;;;;;;;14.17;100.00;100971.84;681268;29;880;-52
2023/06/15 01:18:29;;;;;;;4.60;2.88;;;;;;;14.18;100.00;100972.72;683070;28;977;-54
2023/06/15 01:18:56;;;;;;;4.18;2.80;;;;;;;14.17;100.00;100966.59;681943;28;4583;-54
2023/06/15 01:19:34;;;;;;;4.60;2.83;;;;;;;14.18;100.00;100973.59;683749;28;929;-52
2023/06/15 01:19:58;;;;;;;4.30;2.60;;;;;;;14.18;100.00;100972.72;680533;28;1617;-53
2023/06/15 01:20:24;;;;;;;3.90;2.60;;;;;;;14.19;100.00;100972.72;681987;29;754;-54
2023/06/15 01:20:47;;;;;;;4.85;2.90;;;;;;;14.17;100.00;100965.75;682316;29;905;-54
2023/06/15 01:21:09;;;;;;;4.75;2.80;;;;;;;14.15;100.00;100976.28;681800;29;808;-53
2023/06/15 01:21:29;;;;;;;4.80;2.63;;;;;;;14.17;100.00;100966.59;682100;29;813;-55
2023/06/15 01:21:51;;;;;;;3.90;2.60;;;;;;;14.18;100.00;100973.59;679302;28;4377;-52
2023/06/15 01:22:35;;;;;;;4.07;2.70;;;;;;;14.17;100.00;100971.00;681789;29;1027;-51
2023/06/15 01:23:13;;;;;;;4.50;2.80;;;;;;;14.16;100.00;100978.00;680305;28;968;-51
2023/06/15 01:23:41;;;;;;;4.45;2.78;;;;;;;14.18;100.00;100977.97;682169;28;1258;-53
2023/06/15 01:24:17;;;;;;;4.25;2.75;;;;;;;14.17;100.00;100978.88;683019;28;1366;-53
2023/06/15 01:24:41;;;;;;;4.35;2.72;;;;;;;14.16;100.00;100980.63;683237;28;849;-53
2023/06/15 01:25:16;;;;;;;4.50;3.00;;;;;;;14.17;100.00;100976.25;682165;28;4670;-55
2023/06/15 01:25:37;;;;;;;4.85;2.90;;;;;;;14.16;100.00;100977.13;681444;29;937;-53
2023/06/15 01:26:05;;;;;;;4.13;2.85;;;;;;;14.16;100.00;100975.38;679563;28;1517;-54
2023/06/15 01:26:28;;;;;;;5.10;2.90;;;;;;;14.16;100.00;100978.00;681815;29;913;-53
2023/06/15 01:26:50;;;;;;;4.68;3.00;;;;;;;14.17;100.00;100977.13;678804;28;2229;-54
2023/06/15 01:27:11;;;;;;;5.28;2.95;;;;;;;14.16;100.00;100978.00;680431;29;841;-54
2023/06/15 01:27:33;;;;;;;4.13;2.90;;;;;;;14.18;100.00;100980.59;682332;29;879;-55
2023/06/15 01:27:59;;;;;;;4.25;2.78;;;;;;;14.18;100.00;100972.72;679682;28;4715;-54
2023/06/15 01:28:20;;;;;;;4.43;2.80;;;;;;;14.18;100.00;100973.59;681480;29;1350;-52
2023/06/15 01:28:45;;;;;;;4.85;2.90;;;;;;;14.18;100.00;100972.72;679363;29;1432;-53
2023/06/15 01:29:06;;;;;;;4.05;2.80;;;;;;;14.18;100.00;100977.97;679636;28;1667;-50
2023/06/15 01:29:29;;;;;;;4.63;2.90;;;;;;;14.18;100.00;100972.72;681258;29;999;-53
2023/06/15 01:29:52;;;;;;;4.50;2.80;;;;;;;14.18;100.00;100978.84;679473;28;1620;-50
2023/06/15 01:30:13;;;;;;;6.00;2.80;;;;;;;14.19;100.00;100975.34;677658;29;1101;-55
2023/06/15 01:30:39;;;;;;;4.75;2.90;;;;;;;14.18;100.00;100973.59;680639;29;909;-54
2023/06/15 01:31:00;;;;;;;4.20;2.97;;;;;;;14.17;100.00;100985.00;679670;28;4509;-51
2023/06/15 01:31:21;;;;;;;4.10;3.08;;;;;;;14.17;100.00;100982.38;680739;28;1314;-54
2023/06/15 01:31:41;;;;;;;4.63;3.00;;;;;;;14.15;100.00;100971.03;681367;29;940;-51
2023/06/15 01:32:04;;;;;;;4.60;2.83;;;;;;;14.16;100.00;100975.38;676595;29;1514;-53
2023/06/15 01:32:25;;;;;;;4.45;2.97;;;;;;;14.17;100.00;100976.25;678066;29;1190;-53
2023/06/15 01:32:46;;;;;;;5.40;3.00;;;;;;;14.16;100.00;100975.38;679569;29;959;-50
2023/06/15 01:33:07;;;;;;;5.40;2.90;;;;;;;14.12;100.00;100985.09;676797;29;1306;-54
2023/06/15 01:33:27;;;;;;;4.03;2.75;;;;;;;14.09;100.00;100979.84;675842;29;874;-53
2023/06/15 01:33:50;;;;;;;5.47;2.87;;;;;;;14.07;100.00;100981.63;673661;29;4528;-50
2023/06/15 01:34:11;;;;;;;5.28;2.80;;;;;;;14.07;100.00;100980.78;678326;29;1117;-53
2023/06/15 01:34:32;;;;;;;4.40;2.60;;;;;;;14.07;100.00;100979.00;675380;29;969;-54
2023/06/15 01:34:52;;;;;;;4.00;2.72;;;;;;;14.04;100.00;100975.53;672716;29;1923;-50
2023/06/15 01:35:12;;;;;;;4.30;2.80;;;;;;;14.04;100.00;100981.69;670616;29;1445;-53
2023/06/15 01:35:33;;;;;;;5.07;3.10;;;;;;;14.05;100.00;100974.66;672226;29;1088;-53
2023/06/15 01:35:56;;;;;;;4.33;3.00;;;;;;;14.06;100.00;100981.66;672530;29;1764;-54
2023/06/15 01:36:17;;;;;;;4.72;2.72;;;;;;;14.07;100.00;100981.63;673463;29;2075;-52
2023/06/15 01:36:40;;;;;;;4.30;2.90;;;;;;;14.08;100.00;100977.25;677152;29;4447;-52
2023/06/15 01:37:00;;;;;;;4.23;2.90;;;;;;;14.09;100.00;100976.34;679507;28;1422;-53
2023/06/15 01:37:21;;;;;;;3.78;2.70;;;;;;;14.10;100.00;100981.59;681250;29;874;-53
2023/06/15 01:37:41;;;;;;;3.63;2.60;;;;;;;14.09;100.00;100978.97;680748;29;921;-49
2023/06/15 01:38:04;;;;;;;4.75;2.90;;;;;;;14.11;100.00;100978.06;678755;29;1563;-53
2023/06/15 01:38:28;;;;;;;3.92;2.78;;;;;;;14.11;100.00;100978.06;678965;29;937;-53
2023/06/15 01:38:53;;;;;;;3.92;2.92;;;;;;;14.10;100.00;100978.09;679766;28;5118;-53
2023/06/15 01:39:14;;;;;;;3.92;2.75;;;;;;;14.10;100.00;100983.34;680260;29;1226;-54
2023/06/15 01:39:39;;;;;;;4.50;2.85;;;;;;;14.06;100.00;100979.91;680193;28;907;-54
2023/06/15 01:39:59;;;;;;;4.82;2.90;;;;;;;14.05;100.00;100978.19;676689;29;4669;-54
2023/06/15 01:40:20;;;;;;;4.40;2.95;;;;;;;14.05;100.00;100988.69;677923;29;826;-54
2023/06/15 01:40:44;;;;;;;4.53;3.03;;;;;;;14.05;100.00;100972.91;679045;29;892;-53
2023/06/15 01:41:07;;;;;;;4.25;2.72;;;;;;;14.07;100.00;100970.25;678537;29;2105;-55
2023/06/15 01:41:28;;;;;;;5.15;2.90;;;;;;;14.08;100.00;100983.38;679273;29;976;-54
2023/06/15 01:41:50;;;;;;;4.70;2.80;;;;;;;14.06;100.00;100976.41;674218;29;1633;-53
2023/06/15 01:42:11;;;;;;;4.97;2.90;;;;;;;14.02;100.00;100978.19;675527;29;950;-55
2023/06/15 01:42:31;;;;;;;4.68;2.70;;;;;;;14.02;100.00;100972.94;674732;29;946;-52
2023/06/15 01:42:52;;;;;;;4.70;2.80;;;;;;;14.04;100.00;100984.31;673832;29;4516;-51
2023/06/15 01:43:15;;;;;;;4.50;2.90;;;;;;;14.05;100.00;100974.66;675739;29;811;-52
2023/06/15 01:43:37;;;;;;;4.90;2.92;;;;;;;14.04;100.00;100976.44;677661;29;937;-52
2023/06/15 01:43:59;;;;;;;4.13;2.80;;;;;;;14.05;100.00;100982.53;676777;29;1522;-53